createdAt,value
2023-02-26T00:01:00.619Z,87.96
2023-02-26T00:03:54.873Z,88.24
2023-02-26T00:06:57.347Z,88.55
2023-02-26T00:09:50.723Z,88.74
2023-02-26T00:12:42.978Z,89.31
2023-02-26T00:15:23.821Z,89.61
2023-02-26T00:18:17.729Z,89.78
2023-02-26T00:21:16.432Z,90.06
2023-02-26T00:24:09.859Z,90.06
2023-02-26T00:26:56.312Z,90.09
2023-02-26T00:29:50.396Z,90.03
2023-02-26T00:32:39.516Z,89.97
2023-02-26T00:35:25.972Z,89.98
2023-02-26T00:38:20.662Z,90.01
2023-02-26T00:41:09.981Z,90.28
2023-02-26T00:44:03.811Z,90.16
2023-02-26T00:47:03.212Z,90.26
2023-02-26T00:50:09.044Z,90.06
2023-02-26T00:53:16.450Z,90.03
2023-02-26T00:56:09.411Z,89.77
2023-02-26T00:59:02.206Z,89.69
2023-02-26T01:01:55.363Z,89.41
2023-02-26T01:04:42.936Z,89.28
2023-02-26T01:07:43.407Z,88.93
2023-02-26T01:10:38.324Z,88.72
2023-02-26T01:13:32.335Z,88.52
2023-02-26T01:16:29.226Z,88.25
2023-02-26T01:19:31.140Z,88.19
2023-02-26T01:22:45.485Z,88.19
2023-02-26T01:25:42.837Z,88.18
2023-02-26T01:28:36.684Z,88.35
2023-02-26T01:31:44.488Z,88.39
2023-02-26T01:34:38.357Z,88.57
2023-02-26T01:37:39.242Z,88.40
2023-02-26T01:41:09.770Z,88.70
2023-02-26T01:44:15.742Z,88.83
2023-02-26T01:47:17.831Z,88.97
2023-02-26T01:50:16.230Z,89.02
2023-02-26T01:53:24.642Z,89.18
2023-02-26T01:56:21.057Z,89.11
2023-02-26T01:59:24.406Z,89.38
2023-02-26T02:02:19.523Z,89.24
2023-02-26T02:05:16.885Z,89.27
2023-02-26T02:08:10.120Z,89.50
2023-02-26T02:11:03.069Z,89.58
2023-02-26T02:14:01.653Z,89.80
2023-02-26T02:17:01.652Z,90.23
2023-02-26T02:20:17.558Z,90.36
2023-02-26T02:23:17.703Z,90.44
2023-02-26T02:26:41.556Z,90.41
2023-02-26T02:30:14.975Z,90.53
2023-02-26T02:33:14.153Z,90.36
2023-02-26T02:36:12.249Z,89.99
2023-02-26T02:39:09.488Z,89.77
2023-02-26T02:42:00.449Z,89.84
2023-02-26T02:45:00.618Z,89.65
2023-02-26T02:47:59.457Z,89.27
2023-02-26T02:50:58.160Z,89.29
2023-02-26T02:53:54.875Z,89.29
2023-02-26T02:56:56.518Z,89.37
2023-02-26T02:59:46.246Z,89.50
2023-02-26T03:02:43.139Z,89.61
2023-02-26T03:05:37.613Z,89.46
2023-02-26T03:08:35.073Z,89.63
2023-02-26T03:11:26.929Z,89.62
2023-02-26T03:14:14.601Z,89.71
2023-02-26T03:17:20.013Z,89.86
2023-02-26T03:20:20.326Z,89.90
2023-02-26T03:23:19.721Z,89.80
2023-02-26T03:26:16.545Z,89.89
2023-02-26T03:29:15.286Z,89.99
2023-02-26T03:32:03.882Z,89.68
2023-02-26T03:34:55.022Z,89.49
2023-02-26T03:37:49.858Z,89.01
2023-02-26T03:40:47.514Z,89.07
2023-02-26T03:43:39.335Z,88.84
2023-02-26T03:46:36.622Z,88.67
2023-02-26T03:49:36.301Z,88.22
2023-02-26T03:52:32.875Z,87.98
2023-02-26T03:55:37.890Z,87.70
2023-02-26T03:58:33.497Z,86.90
2023-02-26T04:01:42.409Z,87.02
2023-02-26T04:04:43.004Z,86.30
2023-02-26T04:07:36.791Z,86.35
2023-02-26T04:10:35.540Z,86.26
2023-02-26T04:13:28.499Z,86.00
2023-02-26T04:16:24.221Z,86.10
2023-02-26T04:19:17.582Z,85.96
2023-02-26T04:22:10.912Z,86.04
2023-02-26T04:25:03.692Z,86.04
2023-02-26T04:27:57.655Z,86.05
2023-02-26T04:30:50.597Z,86.14
2023-02-26T04:33:26.991Z,86.05
2023-02-26T04:36:19.728Z,86.44
2023-02-26T04:39:13.038Z,86.33
2023-02-26T04:42:06.209Z,86.56
2023-02-26T04:44:59.082Z,86.49
2023-02-26T04:47:51.930Z,86.72
2023-02-26T04:50:45.089Z,86.55
2023-02-26T04:53:40.467Z,86.50
2023-02-26T04:56:33.652Z,86.53
2023-02-26T04:59:27.539Z,86.64
2023-02-26T05:02:20.735Z,86.56
2023-02-26T05:05:14.168Z,86.50
2023-02-26T05:08:07.111Z,86.66
2023-02-26T05:11:00.027Z,86.50
2023-02-26T05:13:36.976Z,86.43
2023-02-26T05:16:22.893Z,86.22
2023-02-26T05:19:15.921Z,86.32
2023-02-26T05:22:08.888Z,86.34
2023-02-26T05:25:02.109Z,86.30
2023-02-26T05:27:54.868Z,86.28
2023-02-26T05:30:46.412Z,86.26
2023-02-26T05:33:39.226Z,86.31
2023-02-26T05:36:33.694Z,86.56
2023-02-26T05:39:26.515Z,86.46
2023-02-26T05:42:19.552Z,86.59
2023-02-26T05:45:13.123Z,86.61
2023-02-26T05:48:08.314Z,86.63
2023-02-26T05:51:01.108Z,86.58
2023-02-26T05:53:48.761Z,86.70
2023-02-26T05:56:41.796Z,86.62
2023-02-26T05:59:36.684Z,86.68
2023-02-26T06:02:28.499Z,86.88
2023-02-26T06:05:22.975Z,86.60
2023-02-26T06:08:16.682Z,86.61
2023-02-26T06:11:12.748Z,86.31
2023-02-26T06:14:05.654Z,86.24
2023-02-26T06:17:00.039Z,86.04
2023-02-26T06:19:53.170Z,85.58
2023-02-26T06:22:42.908Z,85.63
2023-02-26T06:25:35.946Z,85.46
2023-02-26T06:28:24.631Z,85.12
2023-02-26T06:31:17.384Z,84.91
2023-02-26T06:34:10.157Z,84.83
2023-02-26T06:37:02.961Z,84.29
2023-02-26T06:39:56.654Z,84.19
2023-02-26T06:42:43.392Z,83.99
2023-02-26T06:45:36.255Z,83.63
2023-02-26T06:48:29.442Z,83.01
2023-02-26T06:51:22.875Z,82.98
2023-02-26T06:54:14.914Z,82.09
2023-02-26T06:57:08.052Z,81.49
2023-02-26T07:00:01.205Z,80.76
2023-02-26T07:02:46.917Z,80.43
2023-02-26T07:05:41.453Z,80.37
2023-02-26T07:08:34.249Z,80.84
2023-02-26T07:11:27.146Z,80.69
2023-02-26T07:14:19.876Z,80.13
2023-02-26T07:17:20.805Z,80.09
2023-02-26T07:20:15.384Z,80.11
2023-02-26T07:23:07.582Z,79.54
2023-02-26T07:26:01.040Z,79.77
2023-02-26T07:28:46.743Z,79.85
2023-02-26T07:31:39.877Z,79.69
2023-02-26T07:34:32.994Z,78.67
2023-02-26T07:37:24.767Z,78.48
2023-02-26T07:40:15.926Z,78.66
2023-02-26T07:43:09.108Z,78.36
2023-02-26T07:46:02.128Z,78.96
2023-02-26T07:48:40.092Z,78.86
2023-02-26T07:51:33.320Z,78.49
2023-02-26T07:54:28.257Z,78.66
2023-02-26T07:57:22.420Z,78.37
2023-02-26T08:00:21.268Z,77.78
2023-02-26T08:03:07.491Z,77.19
2023-02-26T08:06:03.165Z,77.36
2023-02-26T08:08:56.105Z,77.13
2023-02-26T08:11:51.169Z,77.43
2023-02-26T08:14:44.009Z,77.12
2023-02-26T08:17:39.887Z,77.38
2023-02-26T08:20:32.691Z,76.68
2023-02-26T08:23:27.007Z,76.78
2023-02-26T08:26:15.207Z,76.23
2023-02-26T08:29:09.051Z,75.88
2023-02-26T08:31:54.781Z,75.61
2023-02-26T08:34:49.781Z,75.15
2023-02-26T08:37:42.926Z,74.87
2023-02-26T08:40:37.426Z,75.18
2023-02-26T08:43:30.377Z,75.29
2023-02-26T08:46:24.922Z,74.47
2023-02-26T08:49:18.202Z,74.96
2023-02-26T08:52:11.267Z,74.58
2023-02-26T08:54:56.368Z,74.72
2023-02-26T08:57:49.111Z,74.81
2023-02-26T09:00:42.315Z,74.91
2023-02-26T09:03:27.627Z,75.26
2023-02-26T09:06:12.895Z,74.99
2023-02-26T09:09:06.105Z,74.91
2023-02-26T09:12:01.256Z,75.27
2023-02-26T09:14:54.120Z,75.50
2023-02-26T09:17:48.029Z,75.15
2023-02-26T09:20:40.889Z,73.52
2023-02-26T09:23:23.858Z,73.02
2023-02-26T09:26:16.789Z,72.99
2023-02-26T09:29:09.829Z,73.13
2023-02-26T09:32:02.749Z,72.97
2023-02-26T09:34:47.909Z,72.41
2023-02-26T09:37:21.001Z,71.86
2023-02-26T09:40:27.102Z,70.95
2023-02-26T09:43:36.346Z,70.17
2023-02-26T09:46:43.950Z,70.45
2023-02-26T09:49:36.388Z,70.77
2023-02-26T09:52:30.877Z,71.16
2023-02-26T09:55:31.317Z,70.57
2023-02-26T09:58:30.106Z,70.34
2023-02-26T10:01:16.563Z,70.22
2023-02-26T10:04:20.607Z,69.86
2023-02-26T10:07:32.838Z,69.95
2023-02-26T10:10:25.870Z,69.96
2023-02-26T10:13:13.128Z,69.99
2023-02-26T10:16:03.477Z,70.75
2023-02-26T10:19:02.178Z,70.88
2023-02-26T10:21:42.895Z,70.53
2023-02-26T10:24:33.796Z,70.99
2023-02-26T10:27:38.763Z,69.35
2023-02-26T10:30:23.197Z,68.05
2023-02-26T10:33:26.394Z,67.61
2023-02-26T10:36:25.446Z,66.58
2023-02-26T10:39:28.481Z,64.79
2023-02-26T10:42:27.059Z,65.71
2023-02-26T10:45:49.410Z,66.49
2023-02-26T10:48:44.565Z,66.49
2023-02-26T10:51:40.615Z,67.70
2023-02-26T10:54:29.375Z,67.40
2023-02-26T10:57:24.438Z,68.09
2023-02-26T11:00:22.564Z,68.12
2023-02-26T11:03:20.385Z,68.49
2023-02-26T11:06:20.380Z,68.86
2023-02-26T11:09:24.022Z,68.32
2023-02-26T11:12:24.204Z,68.43
2023-02-26T11:15:19.204Z,68.68
2023-02-26T11:18:05.256Z,69.00
2023-02-26T11:21:01.658Z,68.50
2023-02-26T11:23:59.918Z,69.34
2023-02-26T11:26:49.797Z,68.72
2023-02-26T11:29:41.732Z,68.65
2023-02-26T11:32:33.661Z,69.45
2023-02-26T11:35:28.680Z,69.44
2023-02-26T11:38:27.082Z,70.23
2023-02-26T11:41:14.530Z,70.25
2023-02-26T11:44:10.269Z,70.20
2023-02-26T11:46:59.312Z,69.50
2023-02-26T11:49:45.708Z,69.22
2023-02-26T11:52:29.138Z,69.40
2023-02-26T11:55:24.354Z,69.41
2023-02-26T11:58:22.336Z,69.32
2023-02-26T12:01:14.367Z,68.50
2023-02-26T12:03:53.465Z,68.58
2023-02-26T12:06:50.808Z,67.96
2023-02-26T12:09:44.358Z,67.53
2023-02-26T12:12:30.994Z,68.53
2023-02-26T12:15:29.348Z,66.83
2023-02-26T12:18:45.620Z,66.77
2023-02-26T12:22:04.742Z,68.06
2023-02-26T12:25:06.981Z,71.99
2023-02-26T12:28:15.846Z,74.58
2023-02-26T12:31:39.600Z,75.98
2023-02-26T12:34:45.172Z,76.61
2023-02-26T12:37:53.452Z,76.92
2023-02-26T12:41:07.429Z,77.33
2023-02-26T12:44:06.295Z,77.12
2023-02-26T12:47:21.566Z,76.96
2023-02-26T12:50:25.796Z,75.38
2023-02-26T12:53:38.059Z,75.18
2023-02-26T12:56:42.658Z,74.41
2023-02-26T12:59:53.611Z,73.34
2023-02-26T13:03:09.609Z,73.19
2023-02-26T13:06:32.037Z,72.83
2023-02-26T13:09:41.744Z,72.13
2023-02-26T13:12:40.948Z,71.33
2023-02-26T13:15:53.663Z,71.44
2023-02-26T13:18:48.800Z,71.54
2023-02-26T13:21:42.893Z,71.22
2023-02-26T13:24:41.292Z,71.09
2023-02-26T13:27:37.654Z,72.24
2023-02-26T13:30:29.175Z,72.67
2023-02-26T13:33:26.328Z,73.08
2023-02-26T13:36:21.590Z,74.23
2023-02-26T13:39:39.690Z,74.60
2023-02-26T13:42:27.171Z,74.01
2023-02-26T13:45:42.662Z,72.66
2023-02-26T13:48:27.918Z,72.19
2023-02-26T13:51:26.637Z,73.03
2023-02-26T13:54:35.186Z,73.46
2023-02-26T13:57:44.712Z,73.75
2023-02-26T14:00:34.333Z,74.39
2023-02-26T14:03:37.639Z,74.45
2023-02-26T14:06:42.603Z,75.46
2023-02-26T14:09:46.927Z,76.78
2023-02-26T14:12:43.375Z,78.22
2023-02-26T14:15:41.833Z,79.06
2023-02-26T14:18:42.812Z,80.57
2023-02-26T14:21:49.734Z,81.13
2023-02-26T14:24:57.578Z,82.32
2023-02-26T14:27:42.133Z,83.33
2023-02-26T14:30:37.436Z,83.80
2023-02-26T14:33:31.228Z,84.27
2023-02-26T14:36:35.670Z,84.50
2023-02-26T14:39:35.489Z,84.36
2023-02-26T14:42:35.395Z,84.13
2023-02-26T14:45:35.141Z,84.19
2023-02-26T14:48:25.301Z,84.13
2023-02-26T14:51:28.090Z,83.99
2023-02-26T14:54:49.494Z,83.88
2023-02-26T14:57:49.012Z,84.07
2023-02-26T15:00:51.151Z,84.32
2023-02-26T15:04:06.454Z,84.41
2023-02-26T15:07:04.949Z,84.38
2023-02-26T15:10:15.036Z,84.43
2023-02-26T15:13:27.930Z,84.47
2023-02-26T15:16:43.568Z,84.42
2023-02-26T15:19:55.278Z,84.34
2023-02-26T15:23:03.157Z,84.19
2023-02-26T15:25:57.214Z,84.18
2023-02-26T15:28:51.000Z,84.15
2023-02-26T15:31:54.283Z,84.24
2023-02-26T15:34:49.141Z,84.08
2023-02-26T15:37:39.056Z,83.93
2023-02-26T15:40:33.455Z,83.19
2023-02-26T15:43:30.136Z,82.72
2023-02-26T15:46:28.536Z,82.22
2023-02-26T15:49:29.453Z,81.94
2023-02-26T15:52:26.598Z,82.20
2023-02-26T15:55:20.504Z,81.97
2023-02-26T15:58:05.193Z,81.66
2023-02-26T16:00:53.632Z,81.71
2023-02-26T16:03:47.421Z,81.93
2023-02-26T16:06:43.888Z,81.71
2023-02-26T16:09:31.883Z,81.60
2023-02-26T16:12:11.981Z,81.46
2023-02-26T16:15:08.369Z,81.69
2023-02-26T16:18:02.404Z,81.80
2023-02-26T16:20:50.518Z,81.64
2023-02-26T16:23:48.056Z,81.59
2023-02-26T16:26:44.667Z,81.39
2023-02-26T16:29:34.234Z,81.29
2023-02-26T16:32:30.752Z,81.62
2023-02-26T16:35:31.160Z,81.02
2023-02-26T16:38:26.089Z,81.38
2023-02-26T16:41:23.850Z,81.84
2023-02-26T16:43:58.998Z,81.78
2023-02-26T16:46:53.760Z,81.74
2023-02-26T16:49:48.196Z,81.74
2023-02-26T16:52:41.170Z,81.67
2023-02-26T16:55:36.827Z,81.62
2023-02-26T16:58:37.017Z,81.37
2023-02-26T17:01:34.623Z,80.92
2023-02-26T17:04:31.933Z,80.96
2023-02-26T17:07:27.946Z,80.95
2023-02-26T17:10:26.141Z,81.33
2023-02-26T17:13:18.516Z,81.00
2023-02-26T17:16:14.513Z,81.00
2023-02-26T17:19:07.517Z,81.08
2023-02-26T17:22:00.571Z,81.11
2023-02-26T17:24:53.911Z,80.14
2023-02-26T17:27:47.263Z,79.49
2023-02-26T17:30:33.937Z,79.47
2023-02-26T17:33:27.282Z,79.82
2023-02-26T17:36:21.419Z,79.82
2023-02-26T17:39:15.328Z,79.45
2023-02-26T17:42:13.980Z,78.88
2023-02-26T17:44:51.017Z,79.17
2023-02-26T17:47:44.742Z,79.01
2023-02-26T17:50:36.613Z,79.04
2023-02-26T17:53:33.995Z,79.12
2023-02-26T17:56:27.014Z,79.16
2023-02-26T17:59:19.943Z,79.34
2023-02-26T18:02:19.779Z,79.58
2023-02-26T18:05:13.304Z,79.68
2023-02-26T18:08:07.788Z,79.88
2023-02-26T18:11:05.099Z,80.13
2023-02-26T18:13:58.465Z,80.29
2023-02-26T18:16:51.370Z,80.16
2023-02-26T18:19:46.440Z,80.03
2023-02-26T18:22:32.169Z,79.74
2023-02-26T18:25:28.832Z,79.43
2023-02-26T18:28:24.574Z,78.91
2023-02-26T18:31:19.157Z,77.38
2023-02-26T18:34:13.300Z,77.86
2023-02-26T18:37:06.127Z,77.25
2023-02-26T18:39:58.957Z,76.77
2023-02-26T18:42:52.717Z,76.12
2023-02-26T18:45:47.950Z,76.04
2023-02-26T18:48:40.982Z,76.02
2023-02-26T18:51:26.939Z,76.51
2023-02-26T18:54:20.420Z,76.41
2023-02-26T18:57:13.599Z,75.19
2023-02-26T19:00:14.050Z,75.78
2023-02-26T19:03:08.944Z,75.84
2023-02-26T19:06:04.467Z,75.93
2023-02-26T19:08:49.158Z,75.57
2023-02-26T19:11:43.886Z,75.23
2023-02-26T19:14:29.789Z,75.55
2023-02-26T19:17:22.718Z,75.46
2023-02-26T19:20:11.212Z,75.87
2023-02-26T19:23:03.015Z,75.92
2023-02-26T19:25:48.955Z,75.63
2023-02-26T19:28:42.521Z,75.96
2023-02-26T19:31:36.698Z,75.63
2023-02-26T19:34:30.156Z,75.86
2023-02-26T19:37:23.210Z,76.15
2023-02-26T19:40:19.401Z,75.86
2023-02-26T19:43:12.580Z,75.91
2023-02-26T19:45:56.228Z,76.03
2023-02-26T19:48:52.115Z,76.10
2023-02-26T19:51:45.258Z,76.08
2023-02-26T19:54:38.485Z,75.51
2023-02-26T19:57:31.443Z,75.23
2023-02-26T20:00:25.637Z,75.33
2023-02-26T20:03:18.408Z,75.73
2023-02-26T20:06:12.735Z,76.00
2023-02-26T20:09:07.273Z,75.74
2023-02-26T20:12:00.397Z,76.03
2023-02-26T20:14:53.274Z,76.27
2023-02-26T20:17:45.823Z,76.19
2023-02-26T20:20:31.320Z,76.64
2023-02-26T20:23:24.208Z,76.71
2023-02-26T20:26:17.899Z,76.72
2023-02-26T20:29:12.150Z,76.48
2023-02-26T20:32:05.209Z,75.99
2023-02-26T20:34:42.315Z,76.40
2023-02-26T20:37:36.208Z,76.17
2023-02-26T20:40:23.129Z,76.40
2023-02-26T20:43:17.010Z,76.53
2023-02-26T20:46:08.930Z,76.38
2023-02-26T20:49:03.664Z,75.68
2023-02-26T20:51:56.652Z,75.94
2023-02-26T20:54:49.397Z,76.09
2023-02-26T20:57:42.195Z,76.24
2023-02-26T21:00:35.301Z,76.05
2023-02-26T21:03:28.480Z,76.22
2023-02-26T21:06:14.572Z,75.86
2023-02-26T21:09:08.776Z,75.95
2023-02-26T21:12:01.568Z,75.98
2023-02-26T21:14:55.847Z,76.08
2023-02-26T21:17:49.082Z,76.13
2023-02-26T21:20:42.065Z,76.32
2023-02-26T21:23:33.872Z,76.12
2023-02-26T21:26:17.708Z,76.17
2023-02-26T21:29:05.031Z,76.34
2023-02-26T21:32:03.292Z,76.04
2023-02-26T21:34:58.829Z,75.79
2023-02-26T21:37:51.679Z,75.79
2023-02-26T21:40:38.410Z,75.99
2023-02-26T21:43:31.494Z,76.03
2023-02-26T21:46:24.978Z,75.75
2023-02-26T21:49:17.797Z,75.96
2023-02-26T21:52:11.237Z,76.19
2023-02-26T21:55:04.100Z,76.03
2023-02-26T21:57:57.205Z,76.02
2023-02-26T22:00:43.804Z,75.95
2023-02-26T22:03:36.861Z,75.94
2023-02-26T22:06:29.362Z,75.85
2023-02-26T22:09:22.153Z,75.17
2023-02-26T22:12:15.001Z,75.14
2023-02-26T22:15:12.129Z,75.48
2023-02-26T22:18:05.344Z,75.68
2023-02-26T22:20:48.359Z,75.77
2023-02-26T22:23:41.476Z,75.79
2023-02-26T22:26:34.339Z,75.97
2023-02-26T22:29:27.558Z,75.90
2023-02-26T22:32:19.053Z,75.89
2023-02-26T22:35:14.024Z,75.89
2023-02-26T22:38:01.105Z,76.14
2023-02-26T22:40:54.152Z,75.73
2023-02-26T22:43:47.022Z,75.65
2023-02-26T22:46:29.895Z,76.06
2023-02-26T22:49:19.750Z,75.71
2023-02-26T22:52:08.505Z,75.58
2023-02-26T22:54:46.563Z,75.51
2023-02-26T22:57:40.025Z,75.25
2023-02-26T23:00:25.655Z,74.52
2023-02-26T23:02:58.407Z,74.81
2023-02-26T23:05:51.208Z,74.54
2023-02-26T23:08:44.040Z,74.28
2023-02-26T23:11:37.230Z,73.31
2023-02-26T23:14:11.636Z,73.44
2023-02-26T23:17:04.501Z,73.47
2023-02-26T23:19:52.538Z,73.62
2023-02-26T23:22:25.231Z,73.60
2023-02-26T23:25:17.993Z,73.24
2023-02-26T23:27:55.630Z,72.80
2023-02-26T23:30:48.777Z,72.76
2023-02-26T23:33:41.766Z,72.85
2023-02-26T23:36:34.933Z,72.47
2023-02-26T23:39:10.869Z,72.67
2023-02-26T23:42:03.303Z,72.24
2023-02-26T23:44:57.320Z,72.42
2023-02-26T23:47:48.678Z,72.10
2023-02-26T23:50:21.602Z,71.99
2023-02-26T23:52:59.771Z,72.06
2023-02-26T23:56:00.329Z,72.09
2023-02-26T23:58:33.547Z,71.64
